createdAt,value
2022-08-31T00:00:17.131Z,16.20
2022-08-31T00:03:02.828Z,16.18
2022-08-31T00:05:31.434Z,16.17
2022-08-31T00:08:03.932Z,16.14
2022-08-31T00:10:37.126Z,16.13
2022-08-31T00:13:07.120Z,16.15
2022-08-31T00:15:38.547Z,16.11
2022-08-31T00:18:06.798Z,16.08
2022-08-31T00:20:35.131Z,16.09
2022-08-31T00:23:06.181Z,16.09
2022-08-31T00:25:35.005Z,16.10
2022-08-31T00:28:03.462Z,16.09
2022-08-31T00:30:34.267Z,16.03
2022-08-31T00:33:02.544Z,16.04
2022-08-31T00:35:32.828Z,15.94
2022-08-31T00:38:01.444Z,16.01
2022-08-31T00:40:30.959Z,16.00
2022-08-31T00:43:03.186Z,15.91
2022-08-31T00:45:33.699Z,15.97
2022-08-31T00:48:05.025Z,15.91
2022-08-31T00:50:33.200Z,15.88
2022-08-31T00:53:02.861Z,15.86
2022-08-31T00:55:37.279Z,15.84
2022-08-31T00:58:11.880Z,15.82
2022-08-31T01:00:45.090Z,15.80
2022-08-31T01:03:15.173Z,15.76
2022-08-31T01:05:45.791Z,15.73
2022-08-31T01:08:14.714Z,15.73
2022-08-31T01:10:46.507Z,15.66
2022-08-31T01:13:16.728Z,15.66
2022-08-31T01:15:51.337Z,15.63
2022-08-31T01:18:26.743Z,15.59
2022-08-31T01:21:01.294Z,15.60
2022-08-31T01:23:34.959Z,15.58
2022-08-31T01:26:08.545Z,15.56
2022-08-31T01:28:37.080Z,15.54
2022-08-31T01:31:10.255Z,15.53
2022-08-31T01:33:40.752Z,15.50
2022-08-31T01:36:16.261Z,15.48
2022-08-31T01:38:46.123Z,15.44
2022-08-31T01:41:20.880Z,15.43
2022-08-31T01:43:52.995Z,15.42
2022-08-31T01:46:22.059Z,15.40
2022-08-31T01:48:52.328Z,15.37
2022-08-31T01:51:22.936Z,15.33
2022-08-31T01:53:54.876Z,15.28
2022-08-31T01:56:25.443Z,15.32
2022-08-31T01:58:57.677Z,15.30
2022-08-31T02:01:56.845Z,15.23
2022-08-31T02:04:28.890Z,15.20
2022-08-31T02:06:59.974Z,15.15
2022-08-31T02:09:31.188Z,15.10
2022-08-31T02:12:05.301Z,15.05
2022-08-31T02:14:34.159Z,15.01
2022-08-31T02:17:05.359Z,14.96
2022-08-31T02:19:36.939Z,14.84
2022-08-31T02:22:08.398Z,14.90
2022-08-31T02:24:37.919Z,14.85
2022-08-31T02:27:06.556Z,14.82
2022-08-31T02:29:36.409Z,14.79
2022-08-31T02:32:04.924Z,14.74
2022-08-31T02:34:32.824Z,14.71
2022-08-31T02:37:03.416Z,14.66
2022-08-31T02:39:34.920Z,14.65
2022-08-31T02:42:08.312Z,14.63
2022-08-31T02:44:36.416Z,14.64
2022-08-31T02:47:13.278Z,14.65
2022-08-31T02:49:46.676Z,14.66
2022-08-31T02:52:20.723Z,14.69
2022-08-31T02:54:48.711Z,14.68
2022-08-31T02:57:39.047Z,14.68
2022-08-31T03:00:08.793Z,14.65
2022-08-31T03:02:37.338Z,14.66
2022-08-31T03:05:08.061Z,14.62
2022-08-31T03:07:39.341Z,14.60
2022-08-31T03:10:10.258Z,14.59
2022-08-31T03:12:39.596Z,14.55
2022-08-31T03:15:09.291Z,14.50
2022-08-31T03:17:37.280Z,14.49
2022-08-31T03:20:07.286Z,14.46
2022-08-31T03:22:35.746Z,14.47
2022-08-31T03:25:08.550Z,14.44
2022-08-31T03:27:37.220Z,14.40
2022-08-31T03:30:09.474Z,14.36
2022-08-31T03:32:40.150Z,14.30
2022-08-31T03:35:11.034Z,14.27
2022-08-31T03:37:40.610Z,14.24
2022-08-31T03:40:10.167Z,14.19
2022-08-31T03:42:39.580Z,14.17
2022-08-31T03:45:17.154Z,14.12
2022-08-31T03:47:45.680Z,14.09
2022-08-31T03:50:16.080Z,14.00
2022-08-31T03:52:55.562Z,14.04
2022-08-31T03:55:28.582Z,14.02
2022-08-31T03:57:56.790Z,13.98
2022-08-31T04:00:26.946Z,13.96
2022-08-31T04:03:02.027Z,13.84
2022-08-31T04:05:35.306Z,13.86
2022-08-31T04:08:09.011Z,13.89
2022-08-31T04:10:48.118Z,13.86
2022-08-31T04:13:34.582Z,13.85
2022-08-31T04:16:24.013Z,13.77
2022-08-31T04:19:11.449Z,13.82
2022-08-31T04:21:50.082Z,13.80
2022-08-31T04:24:43.282Z,13.81
2022-08-31T04:27:14.317Z,13.79
2022-08-31T04:29:42.288Z,13.79
2022-08-31T04:32:11.817Z,13.79
2022-08-31T04:34:39.866Z,13.79
2022-08-31T04:37:10.387Z,13.76
2022-08-31T04:39:49.430Z,13.81
2022-08-31T04:42:18.998Z,13.84
2022-08-31T04:44:55.351Z,13.86
2022-08-31T04:47:36.771Z,13.91
2022-08-31T04:50:07.460Z,13.93
2022-08-31T04:52:36.185Z,13.94
2022-08-31T04:55:05.048Z,13.95
2022-08-31T04:57:35.475Z,13.95
2022-08-31T05:00:05.198Z,13.95
2022-08-31T05:03:03.397Z,13.99
2022-08-31T05:05:31.347Z,14.03
2022-08-31T05:07:59.363Z,14.04
2022-08-31T05:10:27.925Z,14.09
2022-08-31T05:12:59.268Z,13.96
2022-08-31T05:15:27.624Z,14.04
2022-08-31T05:17:55.861Z,14.12
2022-08-31T05:20:27.656Z,14.11
2022-08-31T05:22:56.552Z,14.18
2022-08-31T05:25:24.478Z,14.21
2022-08-31T05:27:53.437Z,14.19
2022-08-31T05:30:22.504Z,14.20
2022-08-31T05:33:03.059Z,14.19
2022-08-31T05:35:32.959Z,14.25
2022-08-31T05:38:01.205Z,14.25
2022-08-31T05:40:29.344Z,14.22
2022-08-31T05:42:59.477Z,14.32
2022-08-31T05:45:30.227Z,14.33
2022-08-31T05:47:58.401Z,14.32
2022-08-31T05:50:26.479Z,14.32
2022-08-31T05:52:56.308Z,14.41
2022-08-31T05:55:24.976Z,14.45
2022-08-31T05:57:55.316Z,14.46
2022-08-31T06:00:26.581Z,14.58
2022-08-31T06:03:06.704Z,14.60
2022-08-31T06:05:35.885Z,14.78
2022-08-31T06:08:05.622Z,14.97
2022-08-31T06:10:34.783Z,15.25
2022-08-31T06:13:16.762Z,15.51
2022-08-31T06:15:50.745Z,15.71
2022-08-31T06:18:20.832Z,15.84
2022-08-31T06:21:02.244Z,15.90
2022-08-31T06:23:31.740Z,15.81
2022-08-31T06:26:05.218Z,15.86
2022-08-31T06:28:33.574Z,15.86
2022-08-31T06:31:03.429Z,15.79
2022-08-31T06:33:32.847Z,15.79
2022-08-31T06:36:12.574Z,15.80
2022-08-31T06:39:19.860Z,15.89
2022-08-31T06:42:13.858Z,15.95
2022-08-31T06:45:00.290Z,15.85
2022-08-31T06:47:47.405Z,15.83
2022-08-31T06:50:17.939Z,15.91
2022-08-31T06:52:48.507Z,15.93
2022-08-31T06:55:36.892Z,15.97
2022-08-31T06:58:23.831Z,16.04
2022-08-31T07:01:16.113Z,16.09
2022-08-31T07:04:02.860Z,16.04
2022-08-31T07:06:33.052Z,16.03
2022-08-31T07:09:07.541Z,16.04
2022-08-31T07:11:44.244Z,16.15
2022-08-31T07:14:15.598Z,16.26
2022-08-31T07:16:45.634Z,16.33
2022-08-31T07:19:15.405Z,16.37
2022-08-31T07:21:46.847Z,16.40
2022-08-31T07:24:19.210Z,16.37
2022-08-31T07:26:53.200Z,16.31
2022-08-31T07:29:42.812Z,16.41
2022-08-31T07:32:17.603Z,16.40
2022-08-31T07:34:53.345Z,16.41
2022-08-31T07:38:04.251Z,16.36
2022-08-31T07:40:51.509Z,16.48
2022-08-31T07:43:22.576Z,16.61
2022-08-31T07:45:52.175Z,16.66
2022-08-31T07:48:29.487Z,16.62
2022-08-31T07:51:14.572Z,16.66
2022-08-31T07:53:52.571Z,16.68
2022-08-31T07:56:43.481Z,16.71
2022-08-31T07:59:17.386Z,16.73
2022-08-31T08:01:48.475Z,16.67
2022-08-31T08:04:21.805Z,16.78
2022-08-31T08:07:33.815Z,16.86
2022-08-31T08:10:42.404Z,16.97
2022-08-31T08:13:33.308Z,16.92
2022-08-31T08:16:11.207Z,16.78
2022-08-31T08:18:58.112Z,16.79
2022-08-31T08:21:29.813Z,16.79
2022-08-31T08:24:06.277Z,16.77
2022-08-31T08:26:54.397Z,16.99
2022-08-31T08:29:38.573Z,17.12
2022-08-31T08:32:14.236Z,17.24
2022-08-31T08:34:46.156Z,17.23
2022-08-31T08:37:15.120Z,17.39
2022-08-31T08:39:45.609Z,17.43
2022-08-31T08:42:20.894Z,17.34
2022-08-31T08:44:52.199Z,17.38
2022-08-31T08:47:28.616Z,17.57
2022-08-31T08:50:09.135Z,17.55
2022-08-31T08:52:42.891Z,17.51
2022-08-31T08:55:16.210Z,17.60
2022-08-31T08:57:49.562Z,17.65
2022-08-31T09:00:20.654Z,17.83
2022-08-31T09:03:02.535Z,17.82
2022-08-31T09:06:11.139Z,18.24
2022-08-31T09:09:08.798Z,18.24
2022-08-31T09:11:53.123Z,18.28
2022-08-31T09:14:39.758Z,18.43
2022-08-31T09:17:18.514Z,18.54
2022-08-31T09:20:05.772Z,18.53
2022-08-31T09:22:46.857Z,18.79
2022-08-31T09:25:19.116Z,18.85
2022-08-31T09:28:04.192Z,18.76
2022-08-31T09:30:52.897Z,18.82
2022-08-31T09:33:23.494Z,18.88
2022-08-31T09:35:56.855Z,19.03
2022-08-31T09:38:30.058Z,18.99
2022-08-31T09:40:59.202Z,19.03
2022-08-31T09:43:38.620Z,19.16
2022-08-31T09:46:12.762Z,19.16
2022-08-31T09:48:45.352Z,19.24
2022-08-31T09:51:23.860Z,19.52
2022-08-31T09:54:22.857Z,19.61
2022-08-31T09:56:56.202Z,19.51
2022-08-31T09:59:37.290Z,19.45
2022-08-31T10:02:09.951Z,19.43
2022-08-31T10:04:52.326Z,19.52
2022-08-31T10:07:37.733Z,19.69
2022-08-31T10:10:28.181Z,19.89
2022-08-31T10:13:06.379Z,19.92
2022-08-31T10:15:41.238Z,19.88
2022-08-31T10:18:15.472Z,20.01
2022-08-31T10:20:46.594Z,20.00
2022-08-31T10:23:27.263Z,20.01
2022-08-31T10:26:03.447Z,20.15
2022-08-31T10:28:37.794Z,20.23
2022-08-31T10:31:21.707Z,20.39
2022-08-31T10:34:14.174Z,20.21
2022-08-31T10:36:43.690Z,19.99
2022-08-31T10:39:25.098Z,20.00
2022-08-31T10:41:56.991Z,19.89
2022-08-31T10:44:36.415Z,19.74
2022-08-31T10:47:05.538Z,19.81
2022-08-31T10:49:35.387Z,19.84
2022-08-31T10:52:10.507Z,19.90
2022-08-31T10:54:48.928Z,19.94
2022-08-31T10:57:32.229Z,20.07
2022-08-31T11:00:06.540Z,19.94
2022-08-31T11:02:48.753Z,20.09
2022-08-31T11:05:33.494Z,20.03
2022-08-31T11:08:25.615Z,20.17
2022-08-31T11:10:56.684Z,20.42
2022-08-31T11:13:57.119Z,20.64
2022-08-31T11:16:45.540Z,20.65
2022-08-31T11:19:36.216Z,20.82
2022-08-31T11:22:37.477Z,21.04
2022-08-31T11:25:47.491Z,21.09
2022-08-31T11:28:32.171Z,21.35
2022-08-31T11:31:02.384Z,21.36
2022-08-31T11:33:33.924Z,21.24
2022-08-31T11:36:08.755Z,21.32
2022-08-31T11:38:54.469Z,21.27
2022-08-31T11:41:39.111Z,21.25
2022-08-31T11:44:10.265Z,21.24
2022-08-31T11:47:05.103Z,21.49
2022-08-31T11:49:42.210Z,21.63
2022-08-31T11:52:43.217Z,21.55
2022-08-31T11:55:27.047Z,21.54
2022-08-31T11:58:33.711Z,21.56
2022-08-31T12:01:34.307Z,21.67
2022-08-31T12:04:04.467Z,21.70
2022-08-31T12:07:08.791Z,21.67
2022-08-31T12:10:04.538Z,21.69
2022-08-31T12:12:48.363Z,21.79
2022-08-31T12:15:22.011Z,21.73
2022-08-31T12:18:05.802Z,21.78
2022-08-31T12:21:11.208Z,21.80
2022-08-31T12:23:52.919Z,21.70
2022-08-31T12:26:55.194Z,21.66
2022-08-31T12:29:26.806Z,21.59
2022-08-31T12:32:21.055Z,21.51
2022-08-31T12:34:57.781Z,21.59
2022-08-31T12:37:28.209Z,21.69
2022-08-31T12:40:18.779Z,21.89
2022-08-31T12:43:00.238Z,21.96
2022-08-31T12:46:20.720Z,22.04
2022-08-31T12:49:10.388Z,22.13
2022-08-31T12:51:47.051Z,22.09
2022-08-31T12:54:39.665Z,22.06
2022-08-31T12:57:16.594Z,22.04
2022-08-31T13:00:03.188Z,22.04
2022-08-31T13:02:33.327Z,22.21
2022-08-31T13:05:04.174Z,22.22
2022-08-31T13:07:36.395Z,22.26
2022-08-31T13:10:10.957Z,22.33
2022-08-31T13:15:22.317Z,22.25
2022-08-31T13:17:50.525Z,22.34
2022-08-31T13:20:20.197Z,22.49
2022-08-31T13:22:57.650Z,22.58
2022-08-31T13:25:36.924Z,22.71
2022-08-31T13:28:10.775Z,22.58
2022-08-31T13:30:40.023Z,22.57
2022-08-31T13:33:23.783Z,22.54
2022-08-31T13:35:57.907Z,22.52
2022-08-31T13:38:42.375Z,22.52
2022-08-31T13:41:18.638Z,22.37
2022-08-31T13:43:58.908Z,22.28
2022-08-31T13:46:42.424Z,22.42
2022-08-31T13:49:29.664Z,22.47
2022-08-31T13:52:01.142Z,22.43
2022-08-31T13:54:32.755Z,22.48
2022-08-31T13:57:11.986Z,22.57
2022-08-31T13:59:41.871Z,22.57
2022-08-31T14:02:42.960Z,22.54
2022-08-31T14:05:12.887Z,22.39
2022-08-31T14:08:03.134Z,22.33
2022-08-31T14:10:37.001Z,22.38
2022-08-31T14:13:13.315Z,22.41
2022-08-31T14:15:48.951Z,22.42
2022-08-31T14:18:26.135Z,22.43
2022-08-31T14:21:23.455Z,22.39
2022-08-31T14:23:54.921Z,22.39
2022-08-31T14:26:29.045Z,22.35
2022-08-31T14:29:00.386Z,22.37
2022-08-31T14:31:33.888Z,22.40
2022-08-31T14:34:34.116Z,22.40
2022-08-31T14:37:06.345Z,22.47
2022-08-31T14:39:36.405Z,22.61
2022-08-31T14:42:09.500Z,22.71
2022-08-31T14:44:44.380Z,22.75
2022-08-31T14:47:15.293Z,22.75
2022-08-31T14:49:44.201Z,22.88
2022-08-31T14:52:12.994Z,23.00
2022-08-31T14:54:41.215Z,23.12
2022-08-31T14:57:14.638Z,23.31
2022-08-31T14:59:46.795Z,23.44
2022-08-31T15:02:21.973Z,23.55
2022-08-31T15:04:49.881Z,23.58
2022-08-31T15:07:19.503Z,23.47
2022-08-31T15:09:50.100Z,23.43
2022-08-31T15:12:22.817Z,23.37
2022-08-31T15:14:50.788Z,23.28
2022-08-31T15:17:20.685Z,23.18
2022-08-31T15:19:55.459Z,23.10
2022-08-31T15:22:26.266Z,23.12
2022-08-31T15:24:57.709Z,23.03
2022-08-31T15:27:28.516Z,22.90
2022-08-31T15:30:02.599Z,22.84
2022-08-31T15:32:31.463Z,22.81
2022-08-31T15:35:00.251Z,22.76
2022-08-31T15:37:32.720Z,22.73
2022-08-31T15:40:05.497Z,22.72
2022-08-31T15:42:39.812Z,22.58
2022-08-31T15:45:12.099Z,22.58
2022-08-31T15:47:59.288Z,22.62
2022-08-31T15:50:31.691Z,22.66
2022-08-31T15:53:05.214Z,22.64
2022-08-31T15:55:39.693Z,22.62
2022-08-31T15:58:10.931Z,22.56
2022-08-31T16:00:42.076Z,22.57
2022-08-31T16:03:10.959Z,22.55
2022-08-31T16:05:39.958Z,22.49
2022-08-31T16:08:11.283Z,22.46
2022-08-31T16:10:43.512Z,22.46
2022-08-31T16:13:13.612Z,22.43
2022-08-31T16:15:48.913Z,22.49
2022-08-31T16:18:16.888Z,22.40
2022-08-31T16:20:49.024Z,22.32
2022-08-31T16:23:17.347Z,22.32
2022-08-31T16:25:48.417Z,22.22
2022-08-31T16:28:19.603Z,22.32
2022-08-31T16:30:47.908Z,22.29
2022-08-31T16:33:18.715Z,22.20
2022-08-31T16:35:47.130Z,22.20
2022-08-31T16:38:21.495Z,22.18
2022-08-31T16:40:49.956Z,22.09
2022-08-31T16:43:24.906Z,21.91
2022-08-31T16:46:00.579Z,21.94
2022-08-31T16:48:45.942Z,21.95
2022-08-31T16:51:15.055Z,21.92
2022-08-31T16:53:47.948Z,21.89
2022-08-31T16:56:18.493Z,21.84
2022-08-31T16:58:52.378Z,21.82
2022-08-31T17:01:23.927Z,21.73
2022-08-31T17:03:55.785Z,21.66
2022-08-31T17:06:27.425Z,21.62
2022-08-31T17:08:56.625Z,21.62
2022-08-31T17:11:26.816Z,21.59
2022-08-31T17:14:00.866Z,21.55
2022-08-31T17:16:29.942Z,21.48
2022-08-31T17:18:59.303Z,21.45
2022-08-31T17:21:31.626Z,21.42
2022-08-31T17:24:01.889Z,21.40
2022-08-31T17:26:33.672Z,21.37
2022-08-31T17:29:07.404Z,21.35
2022-08-31T17:31:42.280Z,21.30
2022-08-31T17:34:11.266Z,21.23
2022-08-31T17:36:40.989Z,21.19
2022-08-31T17:39:10.746Z,21.11
2022-08-31T17:41:45.654Z,21.03
2022-08-31T17:44:16.154Z,20.92
2022-08-31T17:46:44.622Z,20.92
2022-08-31T17:49:15.756Z,20.84
2022-08-31T17:51:45.767Z,20.76
2022-08-31T17:54:15.882Z,20.71
2022-08-31T17:56:47.651Z,20.66
2022-08-31T17:59:19.283Z,20.60
2022-08-31T18:01:50.184Z,20.53
2022-08-31T18:04:20.769Z,20.48
2022-08-31T18:06:51.637Z,20.45
2022-08-31T18:09:22.683Z,20.39
2022-08-31T18:11:50.927Z,20.33
2022-08-31T18:14:22.354Z,20.28
2022-08-31T18:16:51.945Z,20.24
2022-08-31T18:19:27.435Z,20.16
2022-08-31T18:21:56.839Z,20.09
2022-08-31T18:24:24.969Z,20.07
2022-08-31T18:26:56.594Z,19.96
2022-08-31T18:29:26.718Z,20.00
2022-08-31T18:32:03.985Z,19.97
2022-08-31T18:34:34.367Z,19.94
2022-08-31T18:37:02.807Z,19.91
2022-08-31T18:39:51.229Z,19.90
2022-08-31T18:42:40.596Z,19.82
2022-08-31T18:45:18.561Z,19.73
2022-08-31T18:48:13.497Z,19.65
2022-08-31T18:50:44.072Z,19.50
2022-08-31T18:53:27.756Z,19.53
2022-08-31T18:56:07.031Z,19.43
2022-08-31T18:58:35.649Z,19.43
2022-08-31T19:01:07.430Z,19.39
2022-08-31T19:03:37.768Z,19.34
2022-08-31T19:06:06.324Z,19.29
2022-08-31T19:08:35.864Z,19.23
2022-08-31T19:11:07.596Z,19.18
2022-08-31T19:13:39.538Z,19.11
2022-08-31T19:16:15.522Z,19.00
2022-08-31T19:18:48.315Z,18.97
2022-08-31T19:21:19.143Z,18.92
2022-08-31T19:23:48.024Z,18.77
2022-08-31T19:26:21.026Z,18.78
2022-08-31T19:28:50.263Z,18.73
2022-08-31T19:31:21.323Z,18.71
2022-08-31T19:33:56.081Z,18.67
2022-08-31T19:36:24.596Z,18.60
2022-08-31T19:38:56.061Z,18.56
2022-08-31T19:41:26.489Z,18.50
2022-08-31T19:44:05.654Z,18.46
2022-08-31T19:46:38.790Z,18.40
2022-08-31T19:49:10.870Z,18.28
2022-08-31T19:51:40.968Z,18.40
2022-08-31T19:54:12.327Z,18.40
2022-08-31T19:56:41.305Z,18.38
2022-08-31T19:59:09.990Z,18.37
2022-08-31T20:01:40.237Z,18.33
2022-08-31T20:04:16.735Z,18.36
2022-08-31T20:06:48.130Z,18.33
2022-08-31T20:09:20.144Z,18.31
2022-08-31T20:11:48.600Z,18.26
2022-08-31T20:14:21.001Z,18.21
2022-08-31T20:16:51.203Z,18.11
2022-08-31T20:19:24.837Z,18.09
2022-08-31T20:21:56.100Z,18.02
2022-08-31T20:24:26.846Z,17.98
2022-08-31T20:27:00.984Z,17.96
2022-08-31T20:29:30.520Z,17.92
2022-08-31T20:32:02.697Z,17.90
2022-08-31T20:34:30.856Z,17.86
2022-08-31T20:37:01.207Z,17.82
2022-08-31T20:39:32.717Z,17.78
2022-08-31T20:42:03.111Z,17.73
2022-08-31T20:44:34.785Z,17.71
2022-08-31T20:47:24.536Z,17.68
2022-08-31T20:49:55.152Z,17.64
2022-08-31T20:52:25.213Z,17.65
2022-08-31T20:55:01.390Z,17.56
2022-08-31T20:57:31.854Z,17.58
2022-08-31T21:00:04.291Z,17.59
2022-08-31T21:02:34.692Z,17.56
2022-08-31T21:05:37.019Z,17.41
2022-08-31T21:08:03.767Z,17.45
2022-08-31T21:10:37.628Z,17.34
2022-08-31T21:13:09.213Z,17.36
2022-08-31T21:15:42.183Z,17.35
2022-08-31T21:18:11.917Z,17.33
2022-08-31T21:20:39.810Z,17.26
2022-08-31T21:23:09.755Z,17.27
2022-08-31T21:25:45.204Z,17.19
2022-08-31T21:28:15.562Z,17.16
2022-08-31T21:30:43.948Z,17.11
2022-08-31T21:33:15.801Z,17.07
2022-08-31T21:35:45.511Z,17.01
2022-08-31T21:38:13.627Z,16.96
2022-08-31T21:40:50.876Z,16.93
2022-08-31T21:43:19.016Z,16.83
2022-08-31T21:45:47.345Z,16.83
2022-08-31T21:48:19.398Z,16.81
2022-08-31T21:50:53.872Z,16.79
2022-08-31T21:53:21.901Z,16.79
2022-08-31T21:55:52.260Z,16.75
2022-08-31T21:58:22.835Z,16.70
2022-08-31T22:00:51.060Z,16.66
2022-08-31T22:03:22.565Z,16.62
2022-08-31T22:05:50.485Z,16.59
2022-08-31T22:08:18.628Z,16.55
2022-08-31T22:10:48.981Z,16.53
2022-08-31T22:13:17.398Z,16.48
2022-08-31T22:15:46.017Z,16.45
2022-08-31T22:21:05.306Z,16.40
2022-08-31T22:23:35.075Z,16.35
2022-08-31T22:26:03.244Z,16.30
2022-08-31T22:28:33.676Z,16.25
2022-08-31T22:31:02.463Z,16.23
2022-08-31T22:33:30.442Z,16.19
2022-08-31T22:35:58.541Z,16.17
2022-08-31T22:38:34.784Z,16.14
2022-08-31T22:41:09.843Z,16.12
2022-08-31T22:43:37.908Z,16.08
2022-08-31T22:46:07.135Z,16.04
2022-08-31T22:48:37.225Z,15.98
2022-08-31T22:51:05.679Z,15.94
2022-08-31T22:53:35.184Z,15.88
2022-08-31T22:56:05.222Z,15.85
2022-08-31T22:58:33.051Z,15.84
2022-08-31T23:01:01.035Z,15.82
2022-08-31T23:03:30.761Z,15.78
2022-08-31T23:06:07.620Z,15.78
2022-08-31T23:08:38.014Z,15.75
2022-08-31T23:11:06.044Z,15.71
2022-08-31T23:13:51.131Z,15.70
2022-08-31T23:16:26.986Z,15.66
2022-08-31T23:18:57.653Z,15.54
2022-08-31T23:21:27.604Z,15.62
2022-08-31T23:24:00.165Z,15.60
2022-08-31T23:26:30.579Z,15.46
2022-08-31T23:29:05.385Z,15.50
2022-08-31T23:31:34.099Z,15.49
2022-08-31T23:34:04.152Z,15.36
2022-08-31T23:36:32.174Z,15.44
2022-08-31T23:39:05.648Z,15.27
2022-08-31T23:41:38.904Z,15.37
2022-08-31T23:44:09.277Z,15.32
2022-08-31T23:46:39.157Z,15.30
2022-08-31T23:49:10.685Z,15.25
2022-08-31T23:51:39.395Z,15.22
2022-08-31T23:54:10.545Z,15.18
2022-08-31T23:56:41.817Z,15.13
2022-08-31T23:59:18.128Z,15.12
